createdAt,value
2023-03-31T00:02:13.344Z,12.50
2023-03-31T00:04:46.095Z,12.50
2023-03-31T00:07:16.602Z,12.60
2023-03-31T00:09:46.299Z,12.50
2023-03-31T00:12:16.609Z,12.50
2023-03-31T00:14:44.067Z,12.60
2023-03-31T00:17:11.556Z,12.50
2023-03-31T00:19:40.071Z,12.60
2023-03-31T00:22:06.889Z,12.50
2023-03-31T00:24:34.657Z,12.50
2023-03-31T00:27:02.782Z,12.60
2023-03-31T00:29:30.156Z,12.60
2023-03-31T00:31:56.861Z,12.50
2023-03-31T00:34:23.781Z,12.50
2023-03-31T00:36:50.465Z,12.50
2023-03-31T00:39:19.173Z,12.50
2023-03-31T00:41:45.887Z,12.50
2023-03-31T00:44:18.728Z,12.50
2023-03-31T00:47:04.892Z,12.50
2023-03-31T00:49:39.791Z,12.50
2023-03-31T00:52:27.723Z,12.50
2023-03-31T00:55:02.022Z,12.40
2023-03-31T00:57:32.461Z,12.40
2023-03-31T01:00:18.658Z,12.40
2023-03-31T01:02:58.812Z,12.40
2023-03-31T01:05:47.273Z,12.40
2023-03-31T01:08:16.157Z,12.40
2023-03-31T01:10:47.935Z,12.30
2023-03-31T01:13:16.309Z,12.30
2023-03-31T01:15:44.039Z,12.30
2023-03-31T01:18:13.253Z,12.30
2023-03-31T01:21:08.050Z,12.30
2023-03-31T01:24:07.632Z,12.30
2023-03-31T01:26:55.884Z,12.30
2023-03-31T01:29:39.309Z,12.20
2023-03-31T01:32:17.820Z,12.20
2023-03-31T01:35:20.267Z,12.20
2023-03-31T01:37:49.661Z,12.20
2023-03-31T01:40:35.246Z,12.10
2023-03-31T01:43:20.337Z,12.20
2023-03-31T01:46:28.902Z,12.20
2023-03-31T01:49:22.834Z,12.20
2023-03-31T01:51:53.764Z,12.10
2023-03-31T01:54:34.100Z,12.20
2023-03-31T01:57:14.800Z,12.10
2023-03-31T02:00:05.702Z,12.10
2023-03-31T02:02:50.129Z,12.10
2023-03-31T02:05:28.353Z,12.00
2023-03-31T02:08:10.694Z,12.00
2023-03-31T02:10:39.083Z,12.00
2023-03-31T02:13:07.966Z,11.90
2023-03-31T02:15:39.520Z,11.90
2023-03-31T02:18:11.465Z,11.90
2023-03-31T02:20:42.112Z,11.90
2023-03-31T02:23:12.476Z,11.80
2023-03-31T02:28:18.967Z,11.90
2023-03-31T02:31:13.251Z,11.90
2023-03-31T02:33:40.155Z,11.90
2023-03-31T02:36:07.667Z,11.80
2023-03-31T02:38:41.314Z,11.80
2023-03-31T02:41:08.481Z,11.90
2023-03-31T02:43:35.204Z,11.90
2023-03-31T02:46:01.851Z,11.90
2023-03-31T02:48:33.184Z,11.90
2023-03-31T02:51:09.376Z,11.80
2023-03-31T02:53:54.263Z,11.80
2023-03-31T02:56:58.878Z,11.80
2023-03-31T03:00:04.616Z,11.80
2023-03-31T03:02:57.644Z,11.80
2023-03-31T03:05:49.571Z,11.80
2023-03-31T03:08:48.502Z,11.80
2023-03-31T03:11:30.879Z,11.80
2023-03-31T03:14:22.153Z,11.80
2023-03-31T03:16:56.916Z,11.90
2023-03-31T03:19:24.018Z,11.80
2023-03-31T03:21:51.015Z,11.90
2023-03-31T03:24:18.254Z,11.90
2023-03-31T03:26:45.978Z,11.90
2023-03-31T03:29:14.678Z,11.90
2023-03-31T03:31:42.662Z,11.90
2023-03-31T03:34:10.146Z,12.00
2023-03-31T03:36:37.903Z,12.00
2023-03-31T03:39:05.752Z,12.10
2023-03-31T03:41:33.299Z,12.10
2023-03-31T03:44:00.617Z,12.20
2023-03-31T03:46:27.733Z,12.20
2023-03-31T03:48:54.490Z,12.30
2023-03-31T03:51:21.154Z,12.30
2023-03-31T03:53:47.808Z,12.30
2023-03-31T03:56:14.898Z,12.30
2023-03-31T03:58:41.551Z,12.30
2023-03-31T04:01:08.558Z,12.30
2023-03-31T04:03:35.247Z,12.30
2023-03-31T04:06:02.085Z,12.30
2023-03-31T04:08:28.731Z,12.30
2023-03-31T04:10:55.377Z,12.30
2023-03-31T04:13:22.017Z,12.30
2023-03-31T04:15:48.694Z,12.30
2023-03-31T04:18:22.747Z,12.30
2023-03-31T04:21:04.131Z,12.30
2023-03-31T04:23:32.977Z,12.30
2023-03-31T04:25:59.956Z,12.30
2023-03-31T04:28:26.720Z,12.30
2023-03-31T04:30:58.907Z,12.30
2023-03-31T04:33:25.543Z,12.40
2023-03-31T04:35:52.817Z,12.40
2023-03-31T04:38:26.987Z,12.40
2023-03-31T04:40:53.824Z,12.30
2023-03-31T04:43:21.514Z,12.30
2023-03-31T04:45:48.225Z,12.40
2023-03-31T04:48:15.252Z,12.30
2023-03-31T04:50:42.228Z,12.30
2023-03-31T04:53:08.968Z,12.40
2023-03-31T04:55:36.306Z,12.30
2023-03-31T04:58:03.557Z,12.40
2023-03-31T05:00:30.244Z,12.30
2023-03-31T05:02:57.115Z,12.30
2023-03-31T05:05:23.924Z,12.30
2023-03-31T05:07:50.727Z,12.30
2023-03-31T05:10:17.507Z,12.40
2023-03-31T05:12:44.123Z,12.30
2023-03-31T05:15:11.047Z,12.30
2023-03-31T05:17:38.128Z,12.40
2023-03-31T05:20:06.840Z,12.30
2023-03-31T05:22:38.332Z,12.30
2023-03-31T05:25:07.457Z,12.30
2023-03-31T05:27:35.569Z,12.30
2023-03-31T05:30:04.166Z,12.30
2023-03-31T05:32:30.899Z,12.30
2023-03-31T05:34:57.706Z,12.30
2023-03-31T05:37:25.142Z,12.30
2023-03-31T05:39:52.253Z,12.30
2023-03-31T05:42:20.153Z,12.30
2023-03-31T05:44:46.807Z,12.30
2023-03-31T05:47:13.859Z,12.30
2023-03-31T05:49:40.825Z,12.40
2023-03-31T05:52:08.494Z,12.40
2023-03-31T05:54:35.320Z,12.40
2023-03-31T05:57:02.465Z,12.40
2023-03-31T05:59:29.111Z,12.40
2023-03-31T06:01:55.992Z,12.40
2023-03-31T06:04:22.775Z,12.40
2023-03-31T06:06:50.412Z,12.40
2023-03-31T06:09:18.343Z,12.40
2023-03-31T06:11:45.120Z,12.40
2023-03-31T06:14:11.957Z,12.40
2023-03-31T06:16:39.014Z,12.40
2023-03-31T06:19:05.882Z,12.50
2023-03-31T06:21:32.856Z,12.50
2023-03-31T06:24:00.345Z,12.50
2023-03-31T06:26:27.457Z,12.50
2023-03-31T06:28:54.520Z,12.50
2023-03-31T06:31:23.670Z,12.50
2023-03-31T06:33:51.112Z,12.50
2023-03-31T06:36:21.129Z,12.60
2023-03-31T06:38:48.670Z,12.60
2023-03-31T06:41:16.881Z,12.60
2023-03-31T06:43:43.665Z,12.60
2023-03-31T06:46:10.944Z,12.60
2023-03-31T06:48:37.865Z,12.70
2023-03-31T06:51:06.198Z,12.70
2023-03-31T06:53:33.540Z,12.70
2023-03-31T06:56:00.417Z,12.80
2023-03-31T06:58:29.740Z,12.80
2023-03-31T07:00:58.383Z,12.90
2023-03-31T07:03:25.450Z,12.90
2023-03-31T07:05:53.474Z,12.90
2023-03-31T07:08:21.457Z,12.90
2023-03-31T07:10:50.171Z,12.90
2023-03-31T07:13:18.164Z,12.90
2023-03-31T07:15:48.197Z,12.90
2023-03-31T07:18:15.913Z,13.00
2023-03-31T07:20:43.558Z,13.00
2023-03-31T07:23:10.504Z,13.10
2023-03-31T07:25:37.501Z,13.10
2023-03-31T07:28:06.420Z,13.10
2023-03-31T07:30:33.214Z,13.10
2023-03-31T07:32:59.950Z,13.10
2023-03-31T07:35:26.766Z,13.20
2023-03-31T07:37:53.920Z,13.20
2023-03-31T07:40:29.354Z,13.20
2023-03-31T07:42:56.327Z,13.20
2023-03-31T07:45:25.473Z,13.20
2023-03-31T07:47:53.200Z,13.20
2023-03-31T07:50:20.015Z,13.10
2023-03-31T07:52:47.430Z,13.20
2023-03-31T07:55:14.690Z,13.10
2023-03-31T07:57:42.130Z,13.20
2023-03-31T08:00:12.210Z,13.30
2023-03-31T08:02:41.040Z,13.20
2023-03-31T08:05:08.580Z,13.30
2023-03-31T08:07:36.768Z,13.50
2023-03-31T08:10:06.157Z,13.60
2023-03-31T08:12:33.235Z,13.80
2023-03-31T08:14:59.834Z,13.90
2023-03-31T08:17:26.529Z,14.00
2023-03-31T08:19:53.576Z,14.10
2023-03-31T08:22:20.714Z,14.20
2023-03-31T08:24:47.604Z,14.30
2023-03-31T08:27:14.417Z,14.50
2023-03-31T08:29:41.954Z,14.70
2023-03-31T08:32:08.629Z,14.70
2023-03-31T08:34:36.358Z,14.70
2023-03-31T08:37:04.553Z,14.70
2023-03-31T08:39:32.472Z,14.60
2023-03-31T08:42:11.735Z,14.80
2023-03-31T08:44:46.691Z,15.10
2023-03-31T08:47:18.563Z,15.40
2023-03-31T08:49:59.146Z,15.80
2023-03-31T08:52:43.781Z,15.90
2023-03-31T08:55:17.979Z,16.00
2023-03-31T08:57:54.414Z,16.30
2023-03-31T09:00:21.496Z,16.40
2023-03-31T09:03:05.004Z,16.40
2023-03-31T09:05:49.436Z,16.50
2023-03-31T09:08:33.906Z,16.90
2023-03-31T09:11:24.115Z,17.40
2023-03-31T09:14:11.788Z,17.50
2023-03-31T09:17:21.491Z,17.40
2023-03-31T09:19:59.852Z,17.40
2023-03-31T09:22:34.241Z,17.60
2023-03-31T09:25:10.712Z,17.80
2023-03-31T09:27:41.366Z,17.80
2023-03-31T09:30:14.692Z,18.20
2023-03-31T09:32:41.789Z,18.40
2023-03-31T09:35:23.445Z,18.70
2023-03-31T09:37:51.666Z,18.90
2023-03-31T09:40:21.028Z,19.00
2023-03-31T09:42:56.936Z,19.00
2023-03-31T09:45:23.886Z,19.10
2023-03-31T09:47:53.833Z,19.20
2023-03-31T09:50:25.209Z,19.40
2023-03-31T09:53:01.140Z,19.50
2023-03-31T09:55:50.649Z,19.50
2023-03-31T09:58:17.695Z,19.40
2023-03-31T10:01:03.533Z,19.50
2023-03-31T10:03:36.580Z,19.60
2023-03-31T10:06:10.647Z,20.00
2023-03-31T10:09:01.479Z,20.20
2023-03-31T10:11:28.491Z,20.50
2023-03-31T10:14:13.720Z,20.70
2023-03-31T10:16:53.699Z,20.80
2023-03-31T10:19:20.541Z,21.00
2023-03-31T10:21:48.838Z,21.20
2023-03-31T10:24:19.174Z,21.20
2023-03-31T10:26:52.198Z,21.10
2023-03-31T10:29:25.573Z,20.90
2023-03-31T10:31:52.296Z,20.70
2023-03-31T10:34:19.694Z,20.60
2023-03-31T10:36:49.695Z,20.50
2023-03-31T10:39:17.778Z,20.60
2023-03-31T10:41:51.310Z,20.60
2023-03-31T10:44:32.675Z,20.70
2023-03-31T10:47:17.592Z,20.70
2023-03-31T10:49:45.062Z,20.80
2023-03-31T10:52:19.029Z,20.90
2023-03-31T10:54:56.761Z,20.90
2023-03-31T10:57:41.662Z,21.10
2023-03-31T11:00:36.692Z,21.10
2023-03-31T11:03:20.483Z,20.80
2023-03-31T11:05:58.723Z,20.50
2023-03-31T11:08:58.002Z,20.20
2023-03-31T11:11:46.193Z,19.90
2023-03-31T11:14:30.874Z,19.80
2023-03-31T11:17:09.999Z,19.70
2023-03-31T11:19:51.667Z,19.50
2023-03-31T11:22:34.591Z,19.20
2023-03-31T11:25:18.624Z,18.80
2023-03-31T11:28:09.920Z,18.50
2023-03-31T11:30:48.577Z,18.00
2023-03-31T11:33:51.173Z,17.40
2023-03-31T11:36:52.294Z,17.00
2023-03-31T11:39:47.614Z,16.60
2023-03-31T11:42:22.838Z,16.40
2023-03-31T11:44:56.772Z,16.40
2023-03-31T11:47:28.899Z,16.30
2023-03-31T11:49:59.234Z,16.40
2023-03-31T11:52:37.676Z,16.50
2023-03-31T11:55:07.115Z,16.60
2023-03-31T11:57:39.939Z,16.60
2023-03-31T12:00:16.531Z,16.70
2023-03-31T12:03:11.102Z,16.50
2023-03-31T12:05:46.156Z,16.30
2023-03-31T12:08:18.633Z,15.90
2023-03-31T12:10:51.814Z,15.70
2023-03-31T12:13:36.340Z,15.50
2023-03-31T12:16:19.537Z,15.30
2023-03-31T12:18:56.976Z,15.00
2023-03-31T12:21:26.926Z,14.80
2023-03-31T12:23:53.552Z,14.60
2023-03-31T12:26:42.475Z,14.50
2023-03-31T12:29:38.149Z,14.40
2023-03-31T12:32:21.428Z,14.30
2023-03-31T12:35:09.997Z,14.30
2023-03-31T12:38:01.064Z,14.40
2023-03-31T12:40:49.685Z,14.70
2023-03-31T12:43:54.015Z,15.10
2023-03-31T12:46:28.633Z,15.60
2023-03-31T12:49:18.833Z,16.20
2023-03-31T12:51:58.313Z,16.50
2023-03-31T12:54:32.550Z,16.80
2023-03-31T12:57:01.926Z,17.00
2023-03-31T12:59:35.492Z,17.20
2023-03-31T13:02:15.005Z,17.30
2023-03-31T13:04:42.417Z,17.30
2023-03-31T13:07:29.172Z,17.30
2023-03-31T13:10:18.438Z,17.30
2023-03-31T13:13:15.905Z,17.10
2023-03-31T13:15:54.316Z,17.00
2023-03-31T13:18:22.370Z,17.00
2023-03-31T13:21:05.678Z,17.00
2023-03-31T13:23:35.970Z,17.10
2023-03-31T13:26:03.749Z,17.20
2023-03-31T13:28:42.266Z,17.20
2023-03-31T13:31:12.350Z,17.20
2023-03-31T13:33:59.884Z,17.10
2023-03-31T13:36:54.726Z,17.00
2023-03-31T13:39:39.678Z,17.00
2023-03-31T13:42:19.007Z,17.00
2023-03-31T13:44:55.545Z,16.90
2023-03-31T13:47:58.943Z,17.00
2023-03-31T13:50:31.589Z,17.00
2023-03-31T13:53:04.332Z,16.90
2023-03-31T13:55:51.293Z,16.80
2023-03-31T13:58:34.965Z,16.70
2023-03-31T14:01:05.762Z,16.60
2023-03-31T14:03:58.532Z,16.50
2023-03-31T14:06:48.801Z,16.40
2023-03-31T14:09:31.577Z,16.50
2023-03-31T14:12:02.082Z,16.40
2023-03-31T14:14:29.808Z,16.40
2023-03-31T14:17:00.770Z,16.30
2023-03-31T14:19:45.600Z,16.30
2023-03-31T14:22:40.900Z,16.40
2023-03-31T14:25:19.275Z,16.50
2023-03-31T14:28:05.184Z,16.70
2023-03-31T14:30:58.676Z,17.00
2023-03-31T14:33:31.990Z,17.20
2023-03-31T14:36:16.747Z,17.30
2023-03-31T14:38:44.736Z,17.50
2023-03-31T14:41:21.141Z,17.50
2023-03-31T14:43:51.057Z,17.50
2023-03-31T14:46:22.581Z,17.50
2023-03-31T14:48:51.179Z,17.50
2023-03-31T14:51:24.811Z,17.50
2023-03-31T14:54:01.665Z,17.50
2023-03-31T14:56:54.124Z,17.40
2023-03-31T14:59:31.086Z,17.50
2023-03-31T15:01:59.769Z,17.50
2023-03-31T15:04:41.507Z,17.50
2023-03-31T15:07:09.663Z,17.50
2023-03-31T15:09:36.711Z,17.60
2023-03-31T15:12:07.392Z,17.60
2023-03-31T15:14:45.340Z,17.60
2023-03-31T15:17:19.529Z,17.50
2023-03-31T15:19:46.258Z,17.50
2023-03-31T15:22:18.204Z,17.50
2023-03-31T15:24:44.952Z,17.50
2023-03-31T15:27:37.078Z,17.30
2023-03-31T15:30:13.520Z,17.20
2023-03-31T15:32:40.792Z,17.10
2023-03-31T15:35:22.654Z,16.90
2023-03-31T15:37:52.800Z,16.90
2023-03-31T15:40:24.499Z,16.80
2023-03-31T15:43:06.242Z,16.60
2023-03-31T15:45:48.471Z,16.40
2023-03-31T15:48:35.598Z,16.20
2023-03-31T15:51:06.443Z,16.00
2023-03-31T15:53:38.954Z,15.80
2023-03-31T15:56:06.708Z,15.70
2023-03-31T15:59:00.911Z,15.60
2023-03-31T16:01:32.807Z,15.60
2023-03-31T16:04:01.615Z,15.60
2023-03-31T16:06:52.994Z,15.60
2023-03-31T16:09:39.985Z,15.60
2023-03-31T16:12:19.852Z,15.60
2023-03-31T16:14:56.582Z,15.70
2023-03-31T16:17:37.270Z,15.70
2023-03-31T16:20:10.896Z,15.70
2023-03-31T16:22:42.193Z,15.70
2023-03-31T16:25:15.397Z,15.70
2023-03-31T16:27:43.348Z,15.60
2023-03-31T16:30:16.813Z,15.60
2023-03-31T16:33:08.033Z,15.50
2023-03-31T16:35:37.329Z,15.50
2023-03-31T16:38:05.259Z,15.50
2023-03-31T16:40:38.619Z,15.60
2023-03-31T16:43:14.300Z,15.60
2023-03-31T16:45:44.437Z,15.60
2023-03-31T16:48:16.302Z,15.50
2023-03-31T16:50:48.533Z,15.50
2023-03-31T16:53:17.387Z,15.40
2023-03-31T16:55:44.326Z,15.40
2023-03-31T16:58:11.420Z,15.30
2023-03-31T17:00:40.152Z,15.20
2023-03-31T17:03:08.770Z,15.20
2023-03-31T17:05:43.163Z,15.00
2023-03-31T17:08:10.842Z,15.00
2023-03-31T17:10:39.112Z,14.90
2023-03-31T17:13:06.605Z,14.80
2023-03-31T17:15:36.335Z,14.70
2023-03-31T17:18:04.518Z,14.60
2023-03-31T17:20:32.696Z,14.60
2023-03-31T17:22:59.515Z,14.50
2023-03-31T17:25:26.694Z,14.40
2023-03-31T17:27:53.450Z,14.40
2023-03-31T17:30:20.448Z,14.30
2023-03-31T17:32:47.083Z,14.30
2023-03-31T17:35:21.416Z,14.30
2023-03-31T17:37:55.315Z,14.30
2023-03-31T17:40:24.646Z,14.20
2023-03-31T17:42:52.555Z,14.20
2023-03-31T17:45:19.211Z,14.10
2023-03-31T17:47:46.288Z,14.10
2023-03-31T17:50:13.366Z,14.00
2023-03-31T17:52:40.437Z,14.00
2023-03-31T17:55:07.262Z,13.90
2023-03-31T17:57:34.931Z,13.80
2023-03-31T18:00:01.671Z,13.80
2023-03-31T18:02:28.628Z,13.70
2023-03-31T18:04:55.366Z,13.70
2023-03-31T18:07:23.312Z,13.70
2023-03-31T18:09:49.978Z,13.70
2023-03-31T18:12:16.693Z,13.70
2023-03-31T18:14:43.325Z,13.70
2023-03-31T18:17:14.680Z,13.70
2023-03-31T18:19:42.750Z,13.60
2023-03-31T18:22:10.582Z,13.60
2023-03-31T18:24:38.438Z,13.60
2023-03-31T18:27:05.589Z,13.60
2023-03-31T18:29:32.383Z,13.60
2023-03-31T18:31:59.412Z,13.50
2023-03-31T18:34:26.540Z,13.50
2023-03-31T18:36:53.373Z,13.50
2023-03-31T18:39:20.047Z,13.50
2023-03-31T18:41:48.593Z,13.40
2023-03-31T18:44:18.227Z,13.40
2023-03-31T18:46:45.776Z,13.30
2023-03-31T18:49:14.386Z,13.30
2023-03-31T18:51:41.049Z,13.20
2023-03-31T18:54:08.035Z,13.20
2023-03-31T18:56:34.679Z,13.10
2023-03-31T18:59:04.081Z,13.10
2023-03-31T19:01:32.500Z,13.10
2023-03-31T19:03:59.318Z,13.00
2023-03-31T19:06:26.905Z,13.00
2023-03-31T19:08:56.376Z,13.00
2023-03-31T19:11:23.780Z,13.00
2023-03-31T19:13:50.644Z,13.00
2023-03-31T19:16:18.616Z,12.90
2023-03-31T19:18:45.383Z,12.90
2023-03-31T19:21:12.189Z,12.80
2023-03-31T19:23:39.285Z,12.80
2023-03-31T19:26:06.994Z,12.80
2023-03-31T19:28:33.746Z,12.70
2023-03-31T19:31:04.796Z,12.70
2023-03-31T19:33:31.660Z,12.50
2023-03-31T19:35:59.121Z,12.50
2023-03-31T19:38:31.690Z,12.40
2023-03-31T19:40:58.314Z,12.30
2023-03-31T19:43:25.370Z,12.30
2023-03-31T19:45:53.332Z,12.20
2023-03-31T19:48:20.892Z,12.20
2023-03-31T19:50:51.781Z,12.10
2023-03-31T19:53:19.463Z,12.10
2023-03-31T19:56:03.033Z,12.10
2023-03-31T19:58:30.162Z,12.10
2023-03-31T20:00:57.848Z,12.10
2023-03-31T20:03:26.233Z,12.00
2023-03-31T20:06:00.990Z,12.00
2023-03-31T20:08:27.593Z,12.00
2023-03-31T20:10:59.673Z,12.00
2023-03-31T20:13:26.394Z,11.90
2023-03-31T20:16:07.974Z,11.90
2023-03-31T20:18:36.415Z,11.90
2023-03-31T20:21:23.428Z,11.90
2023-03-31T20:23:50.123Z,11.90
2023-03-31T20:26:19.312Z,11.90
2023-03-31T20:28:46.839Z,11.90
2023-03-31T20:31:16.852Z,11.90
2023-03-31T20:33:44.547Z,11.90
2023-03-31T20:36:14.053Z,12.00
2023-03-31T20:38:42.828Z,11.90
2023-03-31T20:41:10.912Z,11.90
2023-03-31T20:43:38.316Z,11.90
2023-03-31T20:46:07.545Z,11.90
2023-03-31T20:48:37.569Z,11.90
2023-03-31T20:51:06.096Z,11.90
2023-03-31T20:53:41.771Z,11.90
2023-03-31T20:56:09.749Z,11.80
2023-03-31T20:58:36.628Z,11.90
2023-03-31T21:01:03.830Z,11.90
2023-03-31T21:03:31.333Z,11.90
2023-03-31T21:06:02.420Z,11.90
2023-03-31T21:08:29.265Z,11.90
2023-03-31T21:10:59.360Z,11.90
2023-03-31T21:13:27.331Z,11.80
2023-03-31T21:15:55.570Z,11.80
2023-03-31T21:18:23.181Z,11.80
2023-03-31T21:20:54.558Z,11.80
2023-03-31T21:23:22.726Z,11.70
2023-03-31T21:25:51.270Z,11.70
2023-03-31T21:28:20.538Z,11.60
2023-03-31T21:30:55.928Z,11.60
2023-03-31T21:33:24.208Z,11.50
2023-03-31T21:35:52.113Z,11.50
2023-03-31T21:38:22.230Z,11.50
2023-03-31T21:40:51.626Z,11.50
2023-03-31T21:43:19.535Z,11.50
2023-03-31T21:45:46.622Z,11.60
2023-03-31T21:48:13.470Z,11.60
2023-03-31T21:50:41.107Z,11.70
2023-03-31T21:53:09.176Z,11.70
2023-03-31T21:55:38.008Z,11.70
2023-03-31T21:58:05.536Z,11.80
2023-03-31T22:00:32.736Z,11.80
2023-03-31T22:03:16.196Z,11.80
2023-03-31T22:05:43.444Z,11.80
2023-03-31T22:08:10.311Z,11.80
2023-03-31T22:10:36.934Z,11.90
2023-03-31T22:13:03.614Z,11.90
2023-03-31T22:15:30.713Z,11.90
2023-03-31T22:17:57.650Z,12.00
2023-03-31T22:20:24.310Z,12.00
2023-03-31T22:22:50.982Z,12.00
2023-03-31T22:25:17.582Z,12.10
2023-03-31T22:27:44.219Z,12.10
2023-03-31T22:30:11.560Z,12.00
2023-03-31T22:32:38.210Z,12.00
2023-03-31T22:35:05.320Z,12.00
2023-03-31T22:37:32.131Z,12.10
2023-03-31T22:39:58.811Z,12.10
2023-03-31T22:42:25.629Z,12.10
2023-03-31T22:44:52.232Z,12.20
2023-03-31T22:47:19.027Z,12.20
2023-03-31T22:49:45.826Z,12.20
2023-03-31T22:52:13.823Z,12.30
2023-03-31T22:54:40.930Z,12.30
2023-03-31T22:57:08.426Z,12.30
2023-03-31T22:59:36.552Z,12.40
2023-03-31T23:02:03.810Z,12.40
2023-03-31T23:04:31.249Z,12.40
2023-03-31T23:06:58.204Z,12.50
2023-03-31T23:09:25.553Z,12.50
2023-03-31T23:11:52.206Z,12.50
2023-03-31T23:14:18.918Z,12.50
2023-03-31T23:16:45.573Z,12.50
2023-03-31T23:19:12.412Z,12.50
2023-03-31T23:21:39.112Z,12.60
2023-03-31T23:24:06.071Z,12.50
2023-03-31T23:26:33.862Z,12.50
2023-03-31T23:29:01.017Z,12.60
2023-03-31T23:31:31.828Z,12.60
2023-03-31T23:33:59.223Z,12.60
2023-03-31T23:36:26.867Z,12.60
2023-03-31T23:38:55.520Z,12.60
2023-03-31T23:41:24.156Z,12.60
2023-03-31T23:43:51.241Z,12.70
2023-03-31T23:46:18.535Z,12.60
2023-03-31T23:48:45.607Z,12.60
2023-03-31T23:51:13.240Z,12.60
2023-03-31T23:53:39.877Z,12.60
2023-03-31T23:56:09.845Z,12.60
2023-03-31T23:58:38.463Z,12.60
